createdAt,value
2018-05-29T00:01:45.192Z,55.80
2018-05-29T00:04:11.869Z,56.89
2018-05-29T00:06:38.456Z,54.95
2018-05-29T00:09:05.349Z,57.12
2018-05-29T00:11:31.936Z,55.95
2018-05-29T00:13:58.682Z,56.73
2018-05-29T00:16:25.555Z,57.30
2018-05-29T00:18:52.265Z,57.09
2018-05-29T00:21:19.147Z,56.26
2018-05-29T00:23:45.788Z,57.25
2018-05-29T00:26:12.965Z,56.19
2018-05-29T00:28:39.556Z,54.26
2018-05-29T00:31:06.156Z,55.58
2018-05-29T00:33:32.963Z,55.52
2018-05-29T00:35:59.893Z,54.95
2018-05-29T00:38:27.094Z,55.12
2018-05-29T00:40:53.854Z,55.72
2018-05-29T00:43:21.007Z,57.76
2018-05-29T00:45:48.083Z,58.84
2018-05-29T00:48:14.825Z,55.96
2018-05-29T00:50:41.612Z,59.15
2018-05-29T00:53:08.209Z,57.54
2018-05-29T00:55:38.664Z,58.34
2018-05-29T00:58:05.256Z,57.04
2018-05-29T01:00:31.752Z,57.06
2018-05-29T01:02:58.204Z,56.01
2018-05-29T01:05:24.690Z,55.62
2018-05-29T01:07:51.680Z,56.02
2018-05-29T01:10:18.481Z,55.87
2018-05-29T01:12:45.337Z,55.87
2018-05-29T01:15:12.145Z,55.86
2018-05-29T01:17:38.853Z,59.25
2018-05-29T01:20:05.542Z,56.60
2018-05-29T01:22:32.413Z,56.22
2018-05-29T01:24:59.153Z,59.25
2018-05-29T01:27:25.910Z,57.81
2018-05-29T01:29:52.753Z,58.87
2018-05-29T01:32:19.670Z,56.83
2018-05-29T01:34:46.919Z,55.71
2018-05-29T01:37:13.625Z,55.51
2018-05-29T01:39:40.266Z,55.78
2018-05-29T01:42:06.980Z,55.69
2018-05-29T01:44:33.745Z,56.20
2018-05-29T01:47:00.561Z,58.88
2018-05-29T01:49:27.424Z,58.26
2018-05-29T01:51:54.182Z,57.42
2018-05-29T01:54:20.805Z,55.48
2018-05-29T01:56:47.625Z,55.44
2018-05-29T01:59:14.262Z,57.87
2018-05-29T02:01:41.001Z,55.25
2018-05-29T02:04:07.652Z,55.43
2018-05-29T02:06:34.299Z,55.54
2018-05-29T02:09:01.060Z,55.91
2018-05-29T02:11:27.862Z,56.03
2018-05-29T02:13:54.568Z,56.21
2018-05-29T02:16:21.224Z,58.40
2018-05-29T02:18:47.937Z,57.47
2018-05-29T02:21:14.641Z,57.23
2018-05-29T02:23:41.299Z,59.17
2018-05-29T02:26:08.170Z,58.11
2018-05-29T02:28:34.813Z,59.32
2018-05-29T02:31:01.628Z,56.79
2018-05-29T02:33:28.461Z,55.29
2018-05-29T02:35:55.325Z,58.62
2018-05-29T02:38:21.896Z,55.52
2018-05-29T02:40:48.593Z,55.43
2018-05-29T02:43:15.323Z,55.58
2018-05-29T02:45:42.066Z,56.26
2018-05-29T02:48:08.689Z,55.97
2018-05-29T02:50:35.524Z,56.42
2018-05-29T02:53:02.212Z,56.37
2018-05-29T02:55:28.890Z,56.46
2018-05-29T02:57:55.530Z,56.94
2018-05-29T03:00:22.169Z,56.24
2018-05-29T03:02:49.136Z,56.24
2018-05-29T03:05:15.925Z,60.04
2018-05-29T03:07:42.614Z,57.26
2018-05-29T03:10:09.379Z,57.41
2018-05-29T03:12:36.153Z,56.75
2018-05-29T03:15:02.964Z,58.39
2018-05-29T03:17:29.648Z,56.13
2018-05-29T03:19:56.308Z,58.43
2018-05-29T03:22:22.990Z,58.53
2018-05-29T03:24:49.667Z,55.37
2018-05-29T03:27:17.450Z,57.14
2018-05-29T03:29:44.108Z,58.68
2018-05-29T03:32:10.721Z,56.82
2018-05-29T03:34:37.202Z,59.29
2018-05-29T03:37:03.798Z,57.47
2018-05-29T03:39:30.416Z,55.10
2018-05-29T03:41:57.153Z,60.21
2018-05-29T03:44:23.834Z,59.04
2018-05-29T03:46:50.697Z,59.29
2018-05-29T03:49:17.293Z,56.52
2018-05-29T03:51:44.013Z,55.47
2018-05-29T03:54:10.936Z,56.37
2018-05-29T03:56:37.601Z,58.37
2018-05-29T03:59:04.297Z,56.82
2018-05-29T04:01:31.408Z,58.27
2018-05-29T04:03:58.376Z,56.73
2018-05-29T04:06:25.319Z,56.02
2018-05-29T04:08:51.868Z,55.23
2018-05-29T04:11:18.516Z,56.31
2018-05-29T04:13:45.130Z,56.45
2018-05-29T04:16:11.805Z,55.70
2018-05-29T04:18:38.353Z,55.99
2018-05-29T04:21:05.245Z,55.96
2018-05-29T04:23:31.981Z,56.03
2018-05-29T04:25:58.534Z,56.93
2018-05-29T04:28:25.080Z,57.01
2018-05-29T04:30:51.953Z,57.14
2018-05-29T04:33:19.385Z,57.30
2018-05-29T04:35:49.696Z,55.55
2018-05-29T04:38:16.376Z,55.66
2018-05-29T04:40:43.997Z,55.47
2018-05-29T04:43:10.656Z,55.70
2018-05-29T04:45:37.311Z,55.99
2018-05-29T04:48:03.821Z,55.77
2018-05-29T04:50:30.653Z,55.78
2018-05-29T04:52:57.924Z,55.78
2018-05-29T04:55:24.480Z,55.75
2018-05-29T04:57:51.205Z,55.54
2018-05-29T05:00:17.831Z,54.21
2018-05-29T05:02:44.433Z,54.18
2018-05-29T05:05:11.156Z,52.25
2018-05-29T05:07:37.919Z,52.09
2018-05-29T05:10:04.658Z,53.20
2018-05-29T05:12:31.316Z,53.57
2018-05-29T05:14:58.007Z,53.70
2018-05-29T05:17:24.645Z,53.24
2018-05-29T05:19:51.238Z,53.04
2018-05-29T05:22:17.919Z,52.19
2018-05-29T05:24:44.701Z,51.60
2018-05-29T05:27:11.738Z,51.11
2018-05-29T05:29:38.320Z,51.03
2018-05-29T05:32:04.938Z,50.22
2018-05-29T05:34:31.541Z,49.85
2018-05-29T05:36:58.136Z,48.38
2018-05-29T05:39:24.745Z,47.67
2018-05-29T05:41:51.581Z,47.06
2018-05-29T05:44:18.261Z,46.30
2018-05-29T05:46:45.032Z,46.59
2018-05-29T05:49:11.691Z,45.49
2018-05-29T05:51:38.382Z,45.42
2018-05-29T05:54:05.077Z,44.98
2018-05-29T05:56:31.645Z,45.31
2018-05-29T05:58:58.346Z,45.64
2018-05-29T06:01:25.073Z,45.33
2018-05-29T06:03:51.856Z,45.00
2018-05-29T06:06:18.590Z,45.51
2018-05-29T06:08:45.177Z,44.71
2018-05-29T06:11:11.774Z,43.28
2018-05-29T06:13:38.581Z,43.74
2018-05-29T06:16:05.239Z,42.94
2018-05-29T06:18:32.042Z,41.73
2018-05-29T06:20:58.634Z,39.15
2018-05-29T06:23:25.360Z,39.55
2018-05-29T06:25:52.544Z,38.85
2018-05-29T06:28:19.251Z,37.41
2018-05-29T06:30:46.017Z,35.64
2018-05-29T06:33:12.580Z,36.54
2018-05-29T06:35:40.097Z,35.32
2018-05-29T06:38:06.747Z,34.90
2018-05-29T06:40:33.261Z,35.22
2018-05-29T06:42:59.967Z,34.06
2018-05-29T06:45:26.669Z,33.77
2018-05-29T06:47:53.324Z,34.53
2018-05-29T06:50:19.889Z,34.38
2018-05-29T06:52:46.489Z,34.10
2018-05-29T06:55:13.061Z,33.21
2018-05-29T06:57:39.659Z,33.44
2018-05-29T07:00:06.246Z,33.34
2018-05-29T07:02:32.964Z,33.35
2018-05-29T07:04:59.629Z,33.21
2018-05-29T07:07:26.459Z,33.21
2018-05-29T07:09:53.089Z,33.20
2018-05-29T07:12:19.616Z,33.09
2018-05-29T07:14:46.262Z,32.36
2018-05-29T07:17:12.781Z,33.43
2018-05-29T07:19:39.349Z,32.02
2018-05-29T07:22:06.703Z,32.83
2018-05-29T07:24:33.497Z,32.83
2018-05-29T07:27:00.093Z,32.69
2018-05-29T07:29:26.682Z,32.59
2018-05-29T07:31:53.218Z,32.43
2018-05-29T07:34:19.743Z,32.94
2018-05-29T07:36:46.506Z,33.43
2018-05-29T07:39:13.013Z,33.24
2018-05-29T07:41:39.648Z,33.68
2018-05-29T07:44:06.514Z,33.11
2018-05-29T07:46:33.148Z,32.80
2018-05-29T07:48:59.673Z,32.98
2018-05-29T07:51:26.225Z,32.15
2018-05-29T07:53:52.812Z,31.94
2018-05-29T07:56:19.377Z,31.68
2018-05-29T07:58:46.007Z,32.66
2018-05-29T08:01:12.592Z,33.35
2018-05-29T08:03:39.268Z,32.16
2018-05-29T08:06:06.039Z,33.40
2018-05-29T08:08:32.578Z,33.13
2018-05-29T08:11:00.156Z,32.54
2018-05-29T08:13:26.728Z,32.21
2018-05-29T08:15:53.430Z,32.38
2018-05-29T08:18:20.021Z,32.75
2018-05-29T08:20:47.244Z,32.20
2018-05-29T08:23:13.791Z,32.85
2018-05-29T08:25:40.889Z,32.99
2018-05-29T08:28:07.785Z,31.84
2018-05-29T08:30:34.380Z,32.71
2018-05-29T08:33:01.041Z,32.61
2018-05-29T08:35:27.880Z,32.10
2018-05-29T08:37:54.932Z,31.83
2018-05-29T08:40:21.381Z,32.96
2018-05-29T08:42:47.865Z,32.23
2018-05-29T08:47:39.644Z,32.38
2018-05-29T08:50:06.280Z,32.69
2018-05-29T08:52:32.962Z,31.76
2018-05-29T08:54:59.447Z,31.53
2018-05-29T08:57:26.146Z,31.75
2018-05-29T08:59:52.692Z,31.63
2018-05-29T09:02:19.372Z,31.24
2018-05-29T09:04:46.261Z,31.47
2018-05-29T09:07:12.869Z,31.63
2018-05-29T09:09:39.388Z,31.68
2018-05-29T09:12:05.889Z,31.68
2018-05-29T09:14:32.397Z,31.22
2018-05-29T09:16:58.968Z,31.87
2018-05-29T09:19:25.722Z,32.03
2018-05-29T09:21:52.300Z,32.95
2018-05-29T09:24:19.141Z,31.88
2018-05-29T09:26:45.629Z,31.72
2018-05-29T09:29:12.325Z,32.14
2018-05-29T09:31:38.817Z,31.63
2018-05-29T09:34:05.380Z,32.20
2018-05-29T09:36:32.031Z,32.30
2018-05-29T09:38:58.744Z,32.59
2018-05-29T09:41:25.348Z,32.20
2018-05-29T09:43:51.973Z,32.06
2018-05-29T09:46:18.698Z,32.14
2018-05-29T09:48:45.389Z,31.44
2018-05-29T09:51:12.059Z,32.01
2018-05-29T09:53:38.677Z,32.05
2018-05-29T09:56:05.259Z,31.80
2018-05-29T09:58:31.864Z,31.78
2018-05-29T10:00:58.624Z,31.51
2018-05-29T10:03:25.122Z,32.18
2018-05-29T10:05:51.628Z,31.92
2018-05-29T10:08:18.258Z,31.64
2018-05-29T10:10:44.886Z,32.13
2018-05-29T10:13:11.469Z,31.83
2018-05-29T10:15:38.193Z,30.84
2018-05-29T10:18:04.733Z,31.12
2018-05-29T10:20:31.188Z,30.93
2018-05-29T10:22:57.669Z,30.96
2018-05-29T10:25:24.366Z,32.12
2018-05-29T10:27:50.940Z,31.84
2018-05-29T10:30:17.592Z,31.86
2018-05-29T10:32:44.289Z,31.76
2018-05-29T10:35:10.920Z,31.61
2018-05-29T10:37:37.572Z,33.55
2018-05-29T10:40:04.245Z,33.87
2018-05-29T10:42:30.754Z,34.45
2018-05-29T10:44:57.419Z,34.65
2018-05-29T10:47:23.917Z,34.51
2018-05-29T10:49:57.578Z,34.48
2018-05-29T10:52:24.191Z,34.65
2018-05-29T10:54:50.912Z,34.92
2018-05-29T10:57:17.477Z,35.24
2018-05-29T10:59:44.054Z,35.67
2018-05-29T11:02:10.688Z,35.96
2018-05-29T11:04:37.192Z,35.87
2018-05-29T11:07:03.745Z,36.05
2018-05-29T11:09:30.258Z,36.20
2018-05-29T11:11:56.767Z,35.79
2018-05-29T11:14:23.462Z,35.33
2018-05-29T11:16:50.092Z,35.25
2018-05-29T11:19:16.709Z,35.19
2018-05-29T11:21:43.321Z,35.56
2018-05-29T11:24:09.854Z,35.82
2018-05-29T11:26:36.502Z,35.73
2018-05-29T11:29:03.004Z,34.78
2018-05-29T11:31:29.722Z,35.28
2018-05-29T11:33:56.236Z,35.72
2018-05-29T11:36:22.733Z,35.29
2018-05-29T11:38:49.318Z,35.44
2018-05-29T11:41:16.291Z,35.33
2018-05-29T11:43:43.073Z,35.67
2018-05-29T11:46:09.685Z,35.60
2018-05-29T11:48:36.336Z,35.76
2018-05-29T11:51:02.923Z,36.08
2018-05-29T11:53:29.464Z,35.64
2018-05-29T11:55:55.989Z,35.98
2018-05-29T11:58:22.705Z,35.65
2018-05-29T12:00:49.277Z,35.47
2018-05-29T12:03:15.869Z,35.03
2018-05-29T12:05:42.413Z,35.60
2018-05-29T12:08:08.924Z,35.44
2018-05-29T12:10:35.507Z,35.09
2018-05-29T12:13:02.056Z,35.18
2018-05-29T12:15:28.564Z,34.73
2018-05-29T12:17:55.140Z,35.23
2018-05-29T12:20:21.720Z,34.83
2018-05-29T12:22:48.285Z,34.93
2018-05-29T12:25:14.879Z,35.22
2018-05-29T12:27:41.361Z,35.94
2018-05-29T12:30:08.001Z,35.32
2018-05-29T12:32:34.584Z,35.40
2018-05-29T12:35:01.092Z,35.81
2018-05-29T12:37:27.873Z,35.68
2018-05-29T12:39:54.429Z,35.77
2018-05-29T12:42:20.988Z,35.98
2018-05-29T12:44:47.513Z,35.51
2018-05-29T12:47:14.156Z,35.40
2018-05-29T12:49:40.595Z,35.69
2018-05-29T12:52:07.161Z,35.33
2018-05-29T12:54:33.800Z,35.53
2018-05-29T12:57:00.423Z,35.71
2018-05-29T12:59:27.168Z,35.35
2018-05-29T13:01:53.798Z,35.60
2018-05-29T13:04:20.565Z,35.94
2018-05-29T13:06:47.079Z,35.70
2018-05-29T13:09:13.669Z,35.93
2018-05-29T13:11:40.200Z,35.53
2018-05-29T13:14:06.644Z,35.29
2018-05-29T13:16:33.170Z,35.52
2018-05-29T13:18:59.713Z,35.30
2018-05-29T13:21:26.222Z,35.20
2018-05-29T13:23:52.796Z,35.27
2018-05-29T13:26:19.406Z,35.26
2018-05-29T13:28:46.076Z,35.37
2018-05-29T13:31:12.816Z,35.47
2018-05-29T13:33:39.368Z,34.96
2018-05-29T13:36:05.840Z,35.24
2018-05-29T13:38:32.385Z,35.66
2018-05-29T13:40:58.895Z,35.96
2018-05-29T13:43:25.450Z,35.08
2018-05-29T13:45:51.884Z,35.87
2018-05-29T13:48:18.470Z,36.30
2018-05-29T13:50:44.976Z,36.38
2018-05-29T13:53:11.555Z,35.89
2018-05-29T13:55:38.118Z,36.16
2018-05-29T13:58:04.709Z,36.40
2018-05-29T14:00:31.268Z,36.33
2018-05-29T14:02:57.754Z,35.95
2018-05-29T14:05:24.272Z,35.64
2018-05-29T14:07:50.941Z,35.46
2018-05-29T14:10:17.527Z,35.66
2018-05-29T14:12:44.120Z,35.70
2018-05-29T14:15:10.721Z,36.09
2018-05-29T14:17:37.405Z,36.48
2018-05-29T14:20:03.941Z,36.22
2018-05-29T14:22:30.650Z,36.07
2018-05-29T14:24:57.122Z,35.73
2018-05-29T14:27:23.704Z,35.84
2018-05-29T14:29:50.260Z,35.57
2018-05-29T14:34:57.929Z,34.84
2018-05-29T14:37:24.409Z,34.87
2018-05-29T14:39:51.512Z,35.15
2018-05-29T14:42:18.703Z,35.24
2018-05-29T14:44:47.611Z,35.14
2018-05-29T14:47:14.335Z,35.63
2018-05-29T14:49:40.934Z,35.34
2018-05-29T14:52:07.998Z,35.49
2018-05-29T14:54:34.556Z,35.71
2018-05-29T14:57:01.088Z,35.58
2018-05-29T14:59:27.674Z,35.63
2018-05-29T15:01:54.266Z,35.57
2018-05-29T15:04:21.059Z,35.56
2018-05-29T15:06:47.636Z,35.30
2018-05-29T15:09:14.393Z,35.69
2018-05-29T15:11:40.833Z,35.52
2018-05-29T15:14:07.442Z,35.56
2018-05-29T15:16:33.973Z,35.21
2018-05-29T15:19:00.857Z,35.23
2018-05-29T15:21:27.606Z,35.30
2018-05-29T15:23:54.304Z,35.55
2018-05-29T15:26:20.944Z,35.68
2018-05-29T15:28:47.453Z,35.95
2018-05-29T15:31:14.209Z,36.08
2018-05-29T15:33:40.706Z,35.60
2018-05-29T15:36:07.394Z,35.56
2018-05-29T15:38:33.893Z,35.23
2018-05-29T15:41:00.532Z,35.27
2018-05-29T15:43:27.055Z,35.38
2018-05-29T15:45:53.464Z,35.33
2018-05-29T15:48:19.981Z,35.51
2018-05-29T15:50:46.495Z,35.60
2018-05-29T15:53:13.134Z,35.43
2018-05-29T15:55:39.717Z,35.25
2018-05-29T15:58:06.253Z,35.16
2018-05-29T16:00:32.884Z,35.41
2018-05-29T16:02:59.316Z,35.36
2018-05-29T16:05:25.715Z,35.34
2018-05-29T16:07:52.212Z,35.43
2018-05-29T16:10:18.718Z,35.54
2018-05-29T16:12:45.442Z,35.33
2018-05-29T16:15:17.233Z,35.25
2018-05-29T16:17:46.943Z,35.29
2018-05-29T16:20:13.614Z,35.33
2018-05-29T16:22:40.190Z,35.87
2018-05-29T16:25:06.660Z,42.04
2018-05-29T16:27:33.287Z,36.68
2018-05-29T16:29:59.729Z,37.79
2018-05-29T16:32:26.468Z,38.07
2018-05-29T16:34:53.108Z,38.89
2018-05-29T16:37:19.687Z,39.73
2018-05-29T16:39:46.243Z,40.54
2018-05-29T16:42:12.667Z,41.58
2018-05-29T16:44:39.172Z,40.59
2018-05-29T16:47:05.600Z,41.29
2018-05-29T16:49:32.028Z,41.47
2018-05-29T16:51:58.524Z,40.57
2018-05-29T16:54:25.017Z,41.00
2018-05-29T16:56:51.553Z,40.38
2018-05-29T16:59:18.112Z,40.24
2018-05-29T17:01:44.748Z,43.03
2018-05-29T17:04:11.156Z,41.52
2018-05-29T17:06:37.655Z,39.86
2018-05-29T17:09:04.985Z,40.36
2018-05-29T17:11:31.680Z,39.09
2018-05-29T17:13:58.403Z,41.59
2018-05-29T17:16:25.026Z,38.58
2018-05-29T17:18:51.726Z,41.78
2018-05-29T17:21:18.148Z,43.39
2018-05-29T17:23:44.683Z,43.66
2018-05-29T17:26:11.124Z,42.84
2018-05-29T17:28:37.561Z,40.65
2018-05-29T17:31:04.122Z,40.61
2018-05-29T17:33:30.666Z,40.93
2018-05-29T17:35:57.797Z,41.33
2018-05-29T17:38:24.300Z,37.20
2018-05-29T17:40:51.038Z,41.08
2018-05-29T17:43:17.462Z,41.23
2018-05-29T17:45:43.934Z,42.71
2018-05-29T17:48:10.340Z,41.88
2018-05-29T17:50:36.916Z,41.68
2018-05-29T17:53:03.342Z,42.21
2018-05-29T17:55:29.915Z,42.02
2018-05-29T17:57:56.369Z,41.24
2018-05-29T18:00:23.297Z,42.08
2018-05-29T18:02:49.751Z,38.79
2018-05-29T18:05:16.244Z,41.13
2018-05-29T18:07:42.681Z,41.54
2018-05-29T18:10:09.453Z,41.34
2018-05-29T18:12:35.922Z,42.15
2018-05-29T18:15:02.557Z,41.12
2018-05-29T18:17:29.195Z,42.07
2018-05-29T18:19:55.700Z,42.45
2018-05-29T18:22:22.273Z,42.78
2018-05-29T18:24:49.018Z,43.19
2018-05-29T18:27:15.712Z,42.61
2018-05-29T18:29:42.321Z,42.47
2018-05-29T18:32:09.011Z,43.19
2018-05-29T18:34:35.696Z,43.64
2018-05-29T18:37:02.524Z,42.66
2018-05-29T18:39:30.654Z,42.05
2018-05-29T18:41:57.382Z,40.89
2018-05-29T18:44:24.015Z,42.12
2018-05-29T18:46:50.733Z,48.46
2018-05-29T18:49:17.216Z,47.13
2018-05-29T18:51:43.798Z,46.46
2018-05-29T18:54:10.372Z,45.54
2018-05-29T18:56:37.060Z,45.86
2018-05-29T18:59:03.707Z,42.54
2018-05-29T19:01:30.268Z,44.38
2018-05-29T19:03:56.864Z,43.12
2018-05-29T19:06:23.744Z,43.92
2018-05-29T19:08:50.186Z,43.43
2018-05-29T19:11:16.661Z,44.11
2018-05-29T19:13:43.017Z,43.63
2018-05-29T19:16:09.445Z,43.68
2018-05-29T19:18:35.931Z,42.36
2018-05-29T19:21:02.441Z,44.86
2018-05-29T19:23:28.931Z,44.17
2018-05-29T19:25:55.417Z,42.43
2018-05-29T19:28:21.886Z,42.92
2018-05-29T19:30:48.327Z,42.86
2018-05-29T19:33:14.820Z,43.66
2018-05-29T19:35:41.316Z,43.36
2018-05-29T19:38:07.882Z,43.19
2018-05-29T19:40:34.335Z,42.59
2018-05-29T19:43:00.798Z,42.87
2018-05-29T19:45:27.244Z,42.85
2018-05-29T19:47:53.680Z,42.36
2018-05-29T19:50:20.149Z,42.91
2018-05-29T19:52:46.576Z,41.67
2018-05-29T19:55:13.043Z,42.55
2018-05-29T19:57:39.559Z,42.22
2018-05-29T20:00:06.382Z,42.83
2018-05-29T20:02:32.961Z,41.67
2018-05-29T20:04:59.528Z,42.79
2018-05-29T20:07:26.111Z,41.85
2018-05-29T20:09:52.528Z,42.42
2018-05-29T20:12:18.973Z,42.54
2018-05-29T20:14:45.584Z,42.61
2018-05-29T20:17:12.134Z,42.42
2018-05-29T20:19:38.584Z,42.39
2018-05-29T20:22:05.086Z,41.30
2018-05-29T20:24:31.518Z,41.66
2018-05-29T20:26:57.941Z,42.71
2018-05-29T20:29:24.472Z,42.10
2018-05-29T20:31:50.986Z,42.95
2018-05-29T20:34:17.413Z,41.73
2018-05-29T20:36:44.058Z,41.70
2018-05-29T20:39:10.585Z,42.18
2018-05-29T20:41:37.067Z,41.43
2018-05-29T20:44:03.612Z,41.99
2018-05-29T20:46:30.269Z,41.93
2018-05-29T20:48:56.855Z,40.70
2018-05-29T20:51:23.240Z,41.72
2018-05-29T20:53:49.719Z,41.31
2018-05-29T20:56:16.229Z,41.48
2018-05-29T20:58:42.668Z,42.14
2018-05-29T21:01:09.191Z,41.10
2018-05-29T21:03:35.660Z,41.36
2018-05-29T21:06:02.167Z,42.05
2018-05-29T21:08:28.648Z,41.43
2018-05-29T21:10:55.146Z,41.13
2018-05-29T21:13:21.661Z,41.79
2018-05-29T21:15:48.155Z,40.84
2018-05-29T21:18:14.569Z,41.60
2018-05-29T21:20:41.008Z,41.22
2018-05-29T21:23:07.405Z,40.65
2018-05-29T21:25:33.808Z,40.44
2018-05-29T21:28:00.328Z,40.71
2018-05-29T21:30:26.804Z,40.19
2018-05-29T21:32:53.217Z,40.95
2018-05-29T21:35:19.665Z,40.25
2018-05-29T21:37:46.109Z,40.19
2018-05-29T21:40:12.611Z,40.80
2018-05-29T21:42:39.056Z,41.26
2018-05-29T21:45:05.528Z,41.66
2018-05-29T21:47:32.057Z,41.92
2018-05-29T21:49:58.509Z,40.80
2018-05-29T21:52:24.991Z,40.77
2018-05-29T21:54:51.550Z,40.01
2018-05-29T21:57:18.061Z,40.33
2018-05-29T21:59:44.497Z,40.35
2018-05-29T22:02:11.100Z,40.55
2018-05-29T22:04:37.595Z,41.32
2018-05-29T22:07:04.000Z,41.06
2018-05-29T22:09:30.491Z,41.50
2018-05-29T22:11:56.991Z,40.84
2018-05-29T22:14:23.510Z,41.24
2018-05-29T22:16:49.949Z,41.89
2018-05-29T22:19:16.408Z,41.48
2018-05-29T22:21:42.827Z,41.19
2018-05-29T22:24:09.295Z,41.20
2018-05-29T22:26:35.725Z,41.18
2018-05-29T22:29:02.279Z,39.54
2018-05-29T22:31:28.749Z,40.15
2018-05-29T22:33:55.232Z,41.19
2018-05-29T22:36:21.699Z,42.37
2018-05-29T22:38:48.116Z,43.27
2018-05-29T22:41:14.564Z,44.00
2018-05-29T22:43:40.968Z,43.89
2018-05-29T22:46:07.503Z,44.80
2018-05-29T22:48:33.926Z,45.24
2018-05-29T22:51:00.472Z,45.21
2018-05-29T22:53:27.008Z,45.87
2018-05-29T22:55:53.539Z,46.25
2018-05-29T22:58:19.973Z,46.53
2018-05-29T23:00:46.448Z,46.83
2018-05-29T23:03:13.071Z,46.96
2018-05-29T23:05:39.661Z,46.35
2018-05-29T23:08:06.133Z,46.51
2018-05-29T23:10:32.723Z,45.87
2018-05-29T23:12:59.344Z,45.87
2018-05-29T23:15:25.959Z,47.15
2018-05-29T23:17:52.547Z,47.53
2018-05-29T23:20:19.125Z,47.59
2018-05-29T23:22:45.668Z,47.21
2018-05-29T23:25:12.260Z,47.37
2018-05-29T23:27:38.852Z,47.42
2018-05-29T23:30:05.373Z,47.42
2018-05-29T23:32:31.909Z,47.61
2018-05-29T23:34:58.533Z,47.66
2018-05-29T23:37:25.081Z,47.60
2018-05-29T23:39:51.668Z,47.54
2018-05-29T23:42:18.323Z,47.44
2018-05-29T23:44:44.876Z,47.62
2018-05-29T23:47:11.439Z,47.84
2018-05-29T23:49:38.026Z,48.23
2018-05-29T23:52:04.611Z,48.25
2018-05-29T23:54:31.261Z,48.53
2018-05-29T23:56:57.807Z,48.55
2018-05-29T23:59:24.373Z,48.71
